SPHI/CIX METAR and TAF weather

Enter ICAO airport designator
Station Type Date Time Source
SPHI METAR 2023/01/30 11:00 UTC NOAA

SPHI 301100Z 20006KT 8000 BKN005 20/19 Q1010 RMK BR BIRD HAZARD RWY 19/01 PP000


Station Type Date Time Source
SPHI Decoded METAR 2023/01/30 11:00 UTC NOAA

Chiclayo, Peru (SPHI) 06-47S 079-50W 34M
Jan 30, 2023 - 06:00 AM EST / 2023.01.30 1100 UTC
Wind: from the SSW (200 degrees) at 7 MPH (6 KT):0
Visibility: 4 mile(s):0
Sky conditions: mostly cloudy
Temperature: 68 F (20 C)
Dew Point: 66 F (19 C)
Relative Humidity: 93%
Pressure (altimeter): 29.83 in. Hg (1010 hPa)
ob: SPHI 301100Z 20006KT 8000 BKN005 20/19 Q1010 RMK BR BIRD HAZARD RWY 19/01 PP000
cycle: 11

Station Type Date Time Source
SPHI TAF 2023/01/30 12:33 UTC NOAA

TAF SPHI 301105Z 3012/3112 18006KT 8000 BKN005 TX29/3019Z TN20/3111Z
TEMPO 3013/3016 SCT010 BKN020
BECMG 3016/3019 15016KT 9999 FEW030
BECMG 3101/3103 20008KT

Example: see airport list